createdAt,value
2018-05-27T00:02:00.653Z,14.10
2018-05-27T00:04:26.725Z,14.10
2018-05-27T00:06:52.799Z,14.10
2018-05-27T00:09:18.887Z,14.00
2018-05-27T00:11:44.961Z,14.00
2018-05-27T00:14:11.046Z,14.00
2018-05-27T00:16:37.867Z,13.90
2018-05-27T00:19:03.955Z,13.90
2018-05-27T00:21:30.035Z,14.00
2018-05-27T00:23:56.109Z,14.00
2018-05-27T00:26:22.203Z,14.00
2018-05-27T00:28:49.041Z,13.90
2018-05-27T00:31:15.853Z,13.70
2018-05-27T00:33:41.950Z,13.70
2018-05-27T00:36:08.027Z,13.70
2018-05-27T00:38:34.125Z,13.60
2018-05-27T00:41:00.210Z,13.60
2018-05-27T00:43:26.317Z,13.60
2018-05-27T00:45:52.395Z,13.60
2018-05-27T00:48:18.494Z,13.60
2018-05-27T00:50:45.311Z,13.60
2018-05-27T00:53:12.150Z,13.60
2018-05-27T00:55:38.221Z,13.50
2018-05-27T00:58:05.051Z,13.50
2018-05-27T01:00:31.123Z,13.50
2018-05-27T01:02:57.205Z,13.40
2018-05-27T01:05:23.283Z,13.40
2018-05-27T01:07:50.111Z,13.40
2018-05-27T01:10:16.202Z,13.40
2018-05-27T01:12:42.286Z,13.40
2018-05-27T01:15:08.379Z,13.40
2018-05-27T01:17:34.453Z,13.40
2018-05-27T01:20:00.543Z,13.40
2018-05-27T01:22:26.627Z,13.40
2018-05-27T01:24:52.721Z,13.30
2018-05-27T01:27:18.824Z,13.30
2018-05-27T01:29:45.005Z,13.30
2018-05-27T01:32:11.077Z,13.20
2018-05-27T01:34:37.163Z,13.20
2018-05-27T01:37:03.238Z,13.20
2018-05-27T01:39:29.316Z,13.10
2018-05-27T01:41:55.382Z,13.00
2018-05-27T01:44:21.467Z,13.00
2018-05-27T01:46:47.529Z,13.00
2018-05-27T01:49:13.618Z,13.00
2018-05-27T01:51:39.690Z,13.00
2018-05-27T01:54:05.770Z,12.90
2018-05-27T01:56:31.831Z,12.90
2018-05-27T01:58:57.922Z,12.90
2018-05-27T02:01:23.983Z,13.00
2018-05-27T02:03:50.071Z,13.00
2018-05-27T02:06:16.149Z,13.00
2018-05-27T02:08:42.210Z,13.00
2018-05-27T02:11:08.278Z,13.00
2018-05-27T02:13:34.354Z,13.00
2018-05-27T02:16:00.426Z,13.00
2018-05-27T02:18:26.508Z,12.90
2018-05-27T02:20:52.594Z,12.90
2018-05-27T02:23:18.670Z,12.80
2018-05-27T02:25:44.738Z,12.80
2018-05-27T02:28:11.598Z,12.70
2018-05-27T02:30:38.430Z,12.70
2018-05-27T02:33:04.549Z,12.70
2018-05-27T02:35:30.575Z,12.80
2018-05-27T02:37:56.686Z,12.80
2018-05-27T02:40:22.792Z,12.80
2018-05-27T02:42:48.896Z,12.70
2018-05-27T02:45:15.009Z,12.70
2018-05-27T02:47:41.086Z,12.60
2018-05-27T02:50:07.171Z,12.60
2018-05-27T02:52:33.242Z,12.60
2018-05-27T02:54:59.334Z,12.60
2018-05-27T02:57:26.138Z,12.60
2018-05-27T02:59:52.231Z,12.60
2018-05-27T03:02:18.316Z,12.60
2018-05-27T03:04:44.410Z,12.50
2018-05-27T03:07:10.494Z,12.50
2018-05-27T03:09:37.331Z,12.50
2018-05-27T03:12:03.398Z,12.50
2018-05-27T03:14:29.495Z,12.50
2018-05-27T03:16:55.564Z,12.50
2018-05-27T03:19:21.656Z,12.40
2018-05-27T03:21:48.481Z,12.50
2018-05-27T03:24:14.570Z,12.50
2018-05-27T03:26:40.693Z,12.50
2018-05-27T03:29:06.782Z,12.50
2018-05-27T03:31:32.851Z,12.50
2018-05-27T03:33:59.683Z,12.60
2018-05-27T03:36:25.764Z,12.50
2018-05-27T03:38:51.863Z,12.60
2018-05-27T03:41:17.934Z,12.70
2018-05-27T03:43:44.039Z,12.70
2018-05-27T03:46:10.103Z,12.80
2018-05-27T03:48:36.251Z,12.80
2018-05-27T03:51:02.350Z,12.90
2018-05-27T03:53:28.410Z,12.90
2018-05-27T03:55:55.289Z,13.10
2018-05-27T03:58:22.146Z,13.10
2018-05-27T04:00:48.222Z,13.20
2018-05-27T04:03:14.290Z,13.20
2018-05-27T04:05:52.627Z,13.20
2018-05-27T04:08:30.642Z,13.30
2018-05-27T04:10:56.713Z,13.30
2018-05-27T04:13:22.766Z,13.40
2018-05-27T04:15:48.851Z,13.50
2018-05-27T04:18:15.658Z,13.60
2018-05-27T04:20:41.730Z,13.60
2018-05-27T04:23:07.785Z,13.50
2018-05-27T04:25:34.605Z,13.50
2018-05-27T04:28:00.671Z,13.50
2018-05-27T04:30:27.559Z,13.50
2018-05-27T04:32:53.627Z,13.50
2018-05-27T04:35:19.718Z,13.60
2018-05-27T04:37:45.786Z,13.60
2018-05-27T04:40:11.866Z,13.70
2018-05-27T04:42:37.922Z,13.70
2018-05-27T04:45:04.739Z,13.80
2018-05-27T04:47:30.811Z,13.70
2018-05-27T04:49:56.877Z,13.90
2018-05-27T04:52:22.945Z,14.10
2018-05-27T04:54:49.010Z,14.30
2018-05-27T04:57:15.094Z,14.50
2018-05-27T04:59:41.171Z,14.70
2018-05-27T05:02:07.243Z,14.90
2018-05-27T05:04:33.418Z,15.00
2018-05-27T05:06:59.484Z,15.20
2018-05-27T05:09:25.609Z,15.40
2018-05-27T05:11:51.632Z,15.50
2018-05-27T05:14:17.706Z,15.50
2018-05-27T05:16:44.517Z,15.80
2018-05-27T05:19:10.573Z,15.80
2018-05-27T05:21:36.659Z,16.00
2018-05-27T05:24:02.725Z,16.20
2018-05-27T05:26:28.802Z,16.40
2018-05-27T05:28:54.882Z,16.70
2018-05-27T05:31:20.941Z,16.90
2018-05-27T05:33:47.005Z,17.00
2018-05-27T05:36:13.088Z,17.10
2018-05-27T05:38:39.158Z,17.10
2018-05-27T05:41:05.229Z,17.20
2018-05-27T05:43:31.402Z,17.20
2018-05-27T05:45:57.482Z,17.30
2018-05-27T05:48:23.553Z,17.10
2018-05-27T05:50:49.645Z,17.00
2018-05-27T05:53:15.720Z,17.00
2018-05-27T05:55:41.813Z,17.20
2018-05-27T05:58:07.894Z,17.30
2018-05-27T06:00:34.055Z,17.60
2018-05-27T06:03:00.900Z,18.40
2018-05-27T06:05:26.962Z,18.40
2018-05-27T06:07:53.047Z,18.60
2018-05-27T06:10:19.123Z,18.60
2018-05-27T06:12:46.012Z,18.60
2018-05-27T06:15:12.094Z,18.60
2018-05-27T06:17:38.169Z,18.50
2018-05-27T06:20:04.253Z,18.90
2018-05-27T06:22:30.340Z,19.20
2018-05-27T06:24:57.149Z,19.60
2018-05-27T06:27:23.243Z,19.60
2018-05-27T06:29:49.310Z,19.80
2018-05-27T06:32:15.426Z,20.10
2018-05-27T06:34:41.509Z,20.40
2018-05-27T06:37:07.598Z,20.70
2018-05-27T06:39:33.662Z,21.00
2018-05-27T06:41:59.755Z,21.00
2018-05-27T06:44:26.589Z,21.10
2018-05-27T06:46:52.688Z,21.00
2018-05-27T06:49:18.792Z,21.10
2018-05-27T06:51:44.889Z,21.30
2018-05-27T06:54:10.983Z,21.20
2018-05-27T06:56:37.082Z,21.30
2018-05-27T06:59:03.183Z,21.40
2018-05-27T07:01:29.283Z,21.50
2018-05-27T07:03:55.350Z,21.50
2018-05-27T07:06:21.439Z,21.40
2018-05-27T07:08:48.247Z,21.20
2018-05-27T07:11:14.342Z,21.20
2018-05-27T07:13:41.165Z,20.80
2018-05-27T07:16:07.263Z,20.80
2018-05-27T07:18:33.337Z,20.50
2018-05-27T07:20:59.426Z,20.50
2018-05-27T07:23:25.493Z,20.50
2018-05-27T07:25:51.669Z,20.60
2018-05-27T07:28:17.860Z,20.70
2018-05-27T07:30:43.931Z,20.70
2018-05-27T07:33:10.023Z,20.80
2018-05-27T07:35:36.098Z,20.90
2018-05-27T07:38:02.174Z,20.90
2018-05-27T07:40:28.242Z,21.00
2018-05-27T07:42:54.326Z,21.00
2018-05-27T07:45:20.407Z,21.10
2018-05-27T07:47:46.487Z,21.20
2018-05-27T07:50:12.554Z,21.30
2018-05-27T07:52:39.448Z,21.50
2018-05-27T07:55:05.447Z,21.50
2018-05-27T07:57:32.262Z,21.80
2018-05-27T07:59:58.327Z,21.90
2018-05-27T08:02:24.405Z,22.00
2018-05-27T08:04:50.470Z,22.20
2018-05-27T08:07:16.550Z,22.20
2018-05-27T08:09:43.351Z,22.20
2018-05-27T08:12:09.478Z,22.20
2018-05-27T08:14:35.635Z,22.30
2018-05-27T08:17:01.760Z,22.30
2018-05-27T08:19:27.874Z,22.30
2018-05-27T08:21:54.019Z,22.50
2018-05-27T08:24:20.151Z,22.60
2018-05-27T08:26:46.310Z,22.70
2018-05-27T08:29:12.418Z,22.80
2018-05-27T08:31:39.287Z,23.00
2018-05-27T08:34:05.414Z,22.90
2018-05-27T08:36:32.227Z,23.20
2018-05-27T08:38:58.319Z,23.10
2018-05-27T08:41:25.127Z,23.20
2018-05-27T08:43:51.230Z,23.20
2018-05-27T08:46:17.356Z,23.30
2018-05-27T08:48:43.435Z,23.50
2018-05-27T08:51:09.509Z,23.30
2018-05-27T08:53:36.327Z,23.40
2018-05-27T08:56:02.427Z,23.40
2018-05-27T08:58:28.513Z,23.50
2018-05-27T09:00:54.582Z,23.50
2018-05-27T09:03:21.427Z,23.60
2018-05-27T09:05:47.516Z,23.60
2018-05-27T09:08:13.638Z,23.80
2018-05-27T09:10:39.769Z,24.00
2018-05-27T09:13:05.935Z,24.20
2018-05-27T09:15:32.060Z,24.20
2018-05-27T09:17:58.204Z,24.40
2018-05-27T09:20:24.318Z,24.40
2018-05-27T09:22:51.159Z,24.70
2018-05-27T09:25:17.977Z,24.70
2018-05-27T09:27:44.079Z,24.70
2018-05-27T09:30:10.150Z,24.70
2018-05-27T09:32:36.378Z,24.60
2018-05-27T09:35:02.506Z,24.60
2018-05-27T09:37:28.590Z,24.70
2018-05-27T09:39:54.661Z,24.70
2018-05-27T09:42:20.815Z,24.90
2018-05-27T09:44:46.886Z,25.00
2018-05-27T09:47:12.965Z,25.10
2018-05-27T09:49:39.110Z,25.30
2018-05-27T09:52:05.190Z,25.40
2018-05-27T09:54:31.274Z,25.50
2018-05-27T09:56:58.089Z,25.50
2018-05-27T09:59:24.174Z,25.50
2018-05-27T10:01:50.992Z,25.70
2018-05-27T10:04:17.078Z,25.70
2018-05-27T10:06:43.153Z,25.60
2018-05-27T10:09:09.238Z,25.60
2018-05-27T10:11:36.054Z,25.60
2018-05-27T10:14:02.158Z,25.60
2018-05-27T10:16:28.230Z,25.70
2018-05-27T10:18:54.360Z,25.40
2018-05-27T10:21:20.396Z,25.30
2018-05-27T10:23:46.470Z,25.60
2018-05-27T10:26:13.271Z,25.90
2018-05-27T10:28:39.399Z,25.90
2018-05-27T10:31:05.451Z,26.20
2018-05-27T10:33:31.566Z,26.40
2018-05-27T10:35:57.635Z,26.70
2018-05-27T10:38:23.714Z,26.90
2018-05-27T10:40:50.589Z,26.90
2018-05-27T10:43:16.686Z,26.80
2018-05-27T10:45:42.766Z,26.90
2018-05-27T10:48:08.856Z,27.10
2018-05-27T10:50:34.930Z,27.10
2018-05-27T10:53:01.773Z,27.10
2018-05-27T10:55:27.842Z,27.00
2018-05-27T10:57:53.946Z,26.90
2018-05-27T11:00:20.037Z,27.00
2018-05-27T11:02:46.162Z,27.00
2018-05-27T11:05:12.262Z,26.90
2018-05-27T11:07:38.338Z,27.00
2018-05-27T11:10:04.431Z,27.10
2018-05-27T11:12:30.619Z,27.20
2018-05-27T11:14:56.699Z,27.20
2018-05-27T11:17:22.773Z,27.50
2018-05-27T11:19:49.602Z,27.80
2018-05-27T11:22:15.774Z,27.80
2018-05-27T11:24:41.860Z,27.90
2018-05-27T11:27:07.934Z,27.90
2018-05-27T11:29:34.011Z,27.40
2018-05-27T11:32:00.082Z,27.50
2018-05-27T11:34:26.281Z,27.60
2018-05-27T11:36:52.357Z,27.50
2018-05-27T11:39:18.542Z,27.50
2018-05-27T11:41:44.625Z,27.50
2018-05-27T11:44:10.713Z,27.70
2018-05-27T11:46:36.851Z,27.80
2018-05-27T11:49:02.938Z,27.80
2018-05-27T11:51:29.028Z,27.90
2018-05-27T11:53:55.102Z,28.10
2018-05-27T11:56:21.194Z,27.90
2018-05-27T11:58:48.006Z,28.30
2018-05-27T12:01:14.836Z,28.10
2018-05-27T12:03:40.919Z,28.10
2018-05-27T12:06:07.019Z,28.10
2018-05-27T12:08:33.115Z,28.10
2018-05-27T12:10:59.944Z,28.30
2018-05-27T12:13:26.030Z,28.20
2018-05-27T12:15:52.118Z,28.40
2018-05-27T12:18:18.301Z,28.50
2018-05-27T12:20:44.431Z,28.70
2018-05-27T12:23:11.251Z,29.00
2018-05-27T12:25:37.359Z,29.00
2018-05-27T12:28:03.454Z,29.10
2018-05-27T12:30:29.539Z,29.20
2018-05-27T12:32:55.648Z,29.30
2018-05-27T12:35:21.731Z,29.20
2018-05-27T12:37:47.818Z,29.30
2018-05-27T12:40:14.634Z,28.80
2018-05-27T12:42:40.828Z,28.80
2018-05-27T12:45:06.911Z,29.00
2018-05-27T12:47:32.995Z,29.30
2018-05-27T12:49:59.066Z,29.40
2018-05-27T12:52:25.152Z,29.50
2018-05-27T12:54:51.360Z,29.30
2018-05-27T12:57:17.414Z,29.50
2018-05-27T12:59:43.490Z,30.00
2018-05-27T13:02:09.589Z,30.10
2018-05-27T13:04:35.661Z,30.50
2018-05-27T13:07:01.778Z,30.40
2018-05-27T13:09:28.618Z,30.60
2018-05-27T13:11:54.723Z,30.60
2018-05-27T13:14:20.796Z,30.60
2018-05-27T13:16:47.781Z,30.70
2018-05-27T13:19:13.726Z,30.70
2018-05-27T13:21:39.814Z,31.00
2018-05-27T13:24:05.878Z,30.90
2018-05-27T13:26:32.728Z,32.00
2018-05-27T13:28:59.550Z,32.30
2018-05-27T13:31:25.630Z,32.30
2018-05-27T13:33:52.457Z,34.70
2018-05-27T13:36:18.560Z,34.60
2018-05-27T13:38:44.639Z,34.30
2018-05-27T13:41:10.707Z,34.50
2018-05-27T13:43:37.535Z,35.10
2018-05-27T13:46:03.631Z,35.10
2018-05-27T13:48:29.702Z,35.00
2018-05-27T13:50:55.762Z,34.50
2018-05-27T13:53:22.584Z,34.40
2018-05-27T13:55:48.661Z,34.40
2018-05-27T13:58:15.494Z,33.50
2018-05-27T14:00:41.579Z,33.50
2018-05-27T14:03:07.663Z,33.50
2018-05-27T14:05:33.737Z,32.40
2018-05-27T14:07:59.810Z,31.70
2018-05-27T14:10:25.915Z,31.50
2018-05-27T14:12:51.981Z,31.30
2018-05-27T14:15:18.044Z,30.30
2018-05-27T14:17:44.123Z,29.60
2018-05-27T14:20:10.203Z,30.00
2018-05-27T14:22:36.295Z,29.80
2018-05-27T14:25:02.379Z,30.50
2018-05-27T14:27:28.449Z,31.00
2018-05-27T14:29:54.567Z,31.60
2018-05-27T14:32:20.615Z,32.00
2018-05-27T14:34:46.731Z,31.70
2018-05-27T14:37:12.775Z,31.60
2018-05-27T14:39:38.846Z,30.80
2018-05-27T14:42:05.677Z,30.40
2018-05-27T14:44:31.729Z,30.40
2018-05-27T14:46:57.806Z,30.20
2018-05-27T14:49:23.850Z,29.90
2018-05-27T14:51:49.917Z,29.60
2018-05-27T14:54:15.975Z,29.40
2018-05-27T14:56:42.045Z,28.90
2018-05-27T14:59:08.098Z,28.80
2018-05-27T15:01:34.183Z,28.80
2018-05-27T15:04:00.283Z,28.60
2018-05-27T15:06:26.306Z,28.40
2018-05-27T15:08:52.374Z,28.20
2018-05-27T15:11:18.447Z,28.30
2018-05-27T15:13:45.258Z,28.40
2018-05-27T15:16:11.318Z,28.30
2018-05-27T15:18:37.393Z,28.40
2018-05-27T15:21:04.189Z,28.50
2018-05-27T15:23:30.282Z,28.50
2018-05-27T15:25:57.088Z,28.30
2018-05-27T15:28:23.168Z,28.30
2018-05-27T15:30:49.962Z,28.40
2018-05-27T15:33:16.038Z,28.40
2018-05-27T15:35:42.194Z,28.50
2018-05-27T15:38:09.002Z,28.20
2018-05-27T15:40:35.103Z,28.20
2018-05-27T15:43:01.202Z,28.30
2018-05-27T15:45:27.270Z,28.20
2018-05-27T15:47:54.081Z,27.80
2018-05-27T15:50:20.180Z,27.80
2018-05-27T15:52:46.263Z,27.60
2018-05-27T15:55:12.338Z,27.40
2018-05-27T15:57:39.162Z,27.10
2018-05-27T16:00:05.246Z,27.10
2018-05-27T16:02:31.346Z,27.20
2018-05-27T16:04:57.418Z,27.10
2018-05-27T16:07:23.502Z,26.90
2018-05-27T16:09:49.582Z,26.90
2018-05-27T16:12:15.683Z,26.80
2018-05-27T16:14:41.775Z,26.80
2018-05-27T16:17:07.858Z,26.70
2018-05-27T16:19:33.939Z,26.70
2018-05-27T16:22:00.028Z,26.70
2018-05-27T16:24:26.098Z,26.70
2018-05-27T16:26:52.903Z,26.60
2018-05-27T16:29:18.987Z,26.50
2018-05-27T16:31:45.869Z,26.30
2018-05-27T16:34:11.955Z,26.20
2018-05-27T16:36:38.040Z,26.40
2018-05-27T16:39:04.933Z,26.30
2018-05-27T16:41:31.006Z,26.40
2018-05-27T16:43:57.110Z,26.30
2018-05-27T16:46:23.187Z,26.20
2018-05-27T16:48:50.034Z,26.30
2018-05-27T16:51:16.209Z,26.30
2018-05-27T16:53:42.305Z,26.30
2018-05-27T16:56:08.380Z,26.30
2018-05-27T16:58:34.538Z,26.20
2018-05-27T17:01:00.615Z,26.10
2018-05-27T17:03:26.708Z,26.00
2018-05-27T17:05:52.793Z,25.90
2018-05-27T17:08:18.891Z,25.70
2018-05-27T17:10:44.995Z,25.50
2018-05-27T17:13:11.826Z,25.40
2018-05-27T17:15:38.015Z,25.30
2018-05-27T17:18:04.099Z,25.30
2018-05-27T17:20:31.224Z,25.30
2018-05-27T17:22:57.314Z,25.30
2018-05-27T17:25:23.387Z,25.20
2018-05-27T17:27:49.542Z,25.10
2018-05-27T17:30:15.630Z,24.90
2018-05-27T17:32:41.710Z,24.90
2018-05-27T17:35:07.831Z,24.80
2018-05-27T17:37:33.987Z,24.70
2018-05-27T17:40:00.108Z,24.70
2018-05-27T17:42:26.271Z,24.60
2018-05-27T17:44:52.352Z,24.40
2018-05-27T17:47:18.423Z,24.30
2018-05-27T17:49:44.528Z,24.20
2018-05-27T17:52:10.604Z,24.00
2018-05-27T17:54:36.675Z,23.90
2018-05-27T17:57:02.754Z,23.80
2018-05-27T17:59:29.573Z,23.50
2018-05-27T18:01:55.659Z,23.50
2018-05-27T18:04:22.468Z,23.40
2018-05-27T18:06:49.266Z,23.30
2018-05-27T18:09:15.371Z,23.20
2018-05-27T18:11:41.431Z,23.20
2018-05-27T18:14:08.308Z,23.00
2018-05-27T18:16:34.374Z,23.00
2018-05-27T18:19:00.451Z,23.00
2018-05-27T18:21:26.631Z,22.80
2018-05-27T18:23:52.732Z,22.80
2018-05-27T18:26:18.797Z,22.80
2018-05-27T18:28:44.866Z,22.70
2018-05-27T18:31:10.926Z,22.50
2018-05-27T18:33:37.004Z,22.50
2018-05-27T18:36:03.058Z,22.40
2018-05-27T18:38:29.191Z,22.30
2018-05-27T18:40:55.246Z,22.20
2018-05-27T18:43:21.348Z,22.10
2018-05-27T18:45:48.175Z,21.80
2018-05-27T18:48:14.295Z,21.80
2018-05-27T18:50:40.334Z,21.70
2018-05-27T18:53:06.423Z,21.60
2018-05-27T18:55:32.566Z,21.40
2018-05-27T18:57:58.667Z,21.20
2018-05-27T19:00:25.502Z,21.00
2018-05-27T19:02:51.587Z,21.00
2018-05-27T19:05:17.658Z,21.00
2018-05-27T19:07:43.773Z,20.90
2018-05-27T19:10:09.895Z,20.80
2018-05-27T19:12:36.726Z,20.70
2018-05-27T19:15:02.887Z,20.60
2018-05-27T19:17:29.695Z,20.50
2018-05-27T19:19:55.806Z,20.50
2018-05-27T19:22:21.880Z,20.40
2018-05-27T19:24:47.974Z,20.40
2018-05-27T19:27:14.038Z,20.40
2018-05-27T19:29:40.121Z,20.30
2018-05-27T19:32:06.984Z,20.30
2018-05-27T19:34:33.030Z,20.30
2018-05-27T19:36:59.840Z,20.10
2018-05-27T19:39:25.951Z,20.10
2018-05-27T19:41:52.019Z,20.10
2018-05-27T19:44:18.111Z,20.00
2018-05-27T19:46:44.198Z,20.00
2018-05-27T19:49:10.321Z,20.00
2018-05-27T19:51:36.392Z,20.00
2018-05-27T19:54:03.223Z,20.00
2018-05-27T19:56:29.304Z,20.00
2018-05-27T19:58:55.467Z,19.90
2018-05-27T20:01:21.535Z,19.90
2018-05-27T20:03:47.626Z,20.00
2018-05-27T20:06:13.766Z,19.90
2018-05-27T20:08:39.863Z,19.80
2018-05-27T20:11:05.947Z,19.80
2018-05-27T20:13:32.027Z,19.70
2018-05-27T20:15:58.123Z,19.60
2018-05-27T20:18:24.212Z,19.50
2018-05-27T20:20:50.286Z,19.40
2018-05-27T20:23:16.363Z,19.30
2018-05-27T20:25:42.434Z,19.30
2018-05-27T20:28:08.514Z,19.20
2018-05-27T20:30:34.591Z,19.20
2018-05-27T20:33:00.691Z,19.10
2018-05-27T20:35:26.775Z,19.00
2018-05-27T20:37:52.954Z,19.00
2018-05-27T20:40:19.039Z,19.00
2018-05-27T20:42:45.140Z,19.00
2018-05-27T20:45:11.238Z,19.00
2018-05-27T20:47:37.274Z,19.00
2018-05-27T20:50:03.368Z,18.90
2018-05-27T20:52:29.450Z,18.80
2018-05-27T20:54:55.558Z,18.80
2018-05-27T20:57:21.666Z,18.80
2018-05-27T20:59:47.750Z,18.70
2018-05-27T21:02:13.817Z,18.70
2018-05-27T21:04:39.937Z,18.70
2018-05-27T21:07:06.046Z,18.70
2018-05-27T21:09:32.154Z,18.70
2018-05-27T21:11:58.222Z,18.60
2018-05-27T21:14:24.314Z,18.60
2018-05-27T21:16:51.135Z,18.50
2018-05-27T21:19:17.218Z,18.50
2018-05-27T21:21:43.288Z,18.40
2018-05-27T21:24:09.387Z,18.40
2018-05-27T21:26:35.448Z,18.40
2018-05-27T21:29:02.279Z,18.40
2018-05-27T21:31:28.357Z,18.40
2018-05-27T21:33:54.442Z,18.40
2018-05-27T21:36:21.259Z,18.40
2018-05-27T21:38:47.353Z,18.40
2018-05-27T21:41:13.418Z,18.40
2018-05-27T21:43:39.530Z,18.40
2018-05-27T21:46:05.622Z,18.40
2018-05-27T21:48:31.716Z,18.40
2018-05-27T21:50:57.807Z,18.40
2018-05-27T21:53:23.887Z,18.50
2018-05-27T21:55:49.977Z,18.40
2018-05-27T21:58:16.088Z,18.40
2018-05-27T22:00:42.191Z,18.30
2018-05-27T22:03:08.271Z,18.30
2018-05-27T22:05:34.397Z,18.30
2018-05-27T22:08:00.495Z,18.20
2018-05-27T22:10:26.591Z,18.10
2018-05-27T22:12:52.666Z,18.10
2018-05-27T22:15:19.509Z,18.10
2018-05-27T22:17:46.330Z,18.10
2018-05-27T22:20:12.431Z,18.10
2018-05-27T22:22:38.502Z,18.10
2018-05-27T22:25:04.587Z,18.10
2018-05-27T22:27:30.666Z,18.00
2018-05-27T22:29:56.746Z,18.00
2018-05-27T22:32:23.576Z,17.90
2018-05-27T22:34:49.671Z,17.90
2018-05-27T22:37:15.739Z,17.90
2018-05-27T22:39:41.822Z,17.90
2018-05-27T22:42:08.644Z,17.80
2018-05-27T22:44:34.733Z,17.80
2018-05-27T22:47:00.803Z,17.80
2018-05-27T22:49:26.893Z,17.80
2018-05-27T22:51:53.773Z,17.60
2018-05-27T22:54:19.859Z,17.50
2018-05-27T22:56:45.925Z,17.50
2018-05-27T22:59:12.737Z,17.10
2018-05-27T23:01:38.851Z,17.10
2018-05-27T23:04:04.938Z,17.10
2018-05-27T23:06:31.000Z,17.10
2018-05-27T23:08:57.804Z,16.90
2018-05-27T23:11:23.911Z,16.90
2018-05-27T23:13:49.967Z,16.80
2018-05-27T23:16:16.043Z,16.70
2018-05-27T23:18:42.114Z,16.70
2018-05-27T23:21:08.190Z,16.60
2018-05-27T23:23:34.283Z,16.60
2018-05-27T23:26:01.096Z,16.40
2018-05-27T23:28:27.170Z,16.40
2018-05-27T23:30:53.978Z,16.40
2018-05-27T23:33:20.051Z,16.30
2018-05-27T23:35:46.865Z,16.30
2018-05-27T23:38:12.938Z,16.30
2018-05-27T23:40:39.015Z,16.20
2018-05-27T23:43:05.087Z,16.00
2018-05-27T23:45:31.166Z,16.00
2018-05-27T23:47:57.975Z,15.80
2018-05-27T23:50:24.095Z,15.80
2018-05-27T23:52:50.194Z,15.80
2018-05-27T23:55:17.015Z,15.70
2018-05-27T23:57:43.143Z,15.70
